createdAt,value
2023-02-09T00:01:28.140Z,18.60
2023-02-09T00:03:55.099Z,18.60
2023-02-09T00:06:23.508Z,18.60
2023-02-09T00:08:50.646Z,18.60
2023-02-09T00:11:46.796Z,18.60
2023-02-09T00:14:15.823Z,18.60
2023-02-09T00:16:42.875Z,18.60
2023-02-09T00:19:10.315Z,18.60
2023-02-09T00:21:37.439Z,18.60
2023-02-09T00:24:04.794Z,18.60
2023-02-09T00:26:32.728Z,18.50
2023-02-09T00:28:59.679Z,18.50
2023-02-09T00:31:26.585Z,18.50
2023-02-09T00:33:53.341Z,18.50
2023-02-09T00:36:20.134Z,18.50
2023-02-09T00:38:46.980Z,18.50
2023-02-09T00:41:16.073Z,18.50
2023-02-09T00:43:43.098Z,18.50
2023-02-09T00:46:10.130Z,18.50
2023-02-09T00:48:36.838Z,18.50
2023-02-09T00:51:03.684Z,18.50
2023-02-09T00:53:30.347Z,18.50
2023-02-09T00:55:57.051Z,18.50
2023-02-09T00:58:23.870Z,18.50
2023-02-09T01:00:50.634Z,18.40
2023-02-09T01:03:17.458Z,18.50
2023-02-09T01:05:44.211Z,18.40
2023-02-09T01:08:10.993Z,18.40
2023-02-09T01:10:38.445Z,18.40
2023-02-09T01:13:05.795Z,18.40
2023-02-09T01:15:32.563Z,18.40
2023-02-09T01:18:00.235Z,18.40
2023-02-09T01:20:27.745Z,18.40
2023-02-09T01:22:54.676Z,18.40
2023-02-09T01:25:21.716Z,18.40
2023-02-09T01:27:48.581Z,18.40
2023-02-09T01:30:15.648Z,18.40
2023-02-09T01:32:42.712Z,18.40
2023-02-09T01:35:09.788Z,18.40
2023-02-09T01:37:36.617Z,18.30
2023-02-09T01:40:04.599Z,18.30
2023-02-09T01:42:31.371Z,18.30
2023-02-09T01:45:06.598Z,18.30
2023-02-09T01:47:41.743Z,18.30
2023-02-09T01:50:09.080Z,18.30
2023-02-09T01:52:35.928Z,18.30
2023-02-09T01:55:06.617Z,18.30
2023-02-09T01:57:38.407Z,18.30
2023-02-09T02:00:14.284Z,18.30
2023-02-09T02:02:44.822Z,18.30
2023-02-09T02:05:11.903Z,18.30
2023-02-09T02:07:57.985Z,18.30
2023-02-09T02:10:25.155Z,18.30
2023-02-09T02:12:54.645Z,18.30
2023-02-09T02:15:29.313Z,18.30
2023-02-09T02:18:08.045Z,18.30
2023-02-09T02:20:44.249Z,18.30
2023-02-09T02:23:28.937Z,18.20
2023-02-09T02:26:25.177Z,18.20
2023-02-09T02:29:10.790Z,18.20
2023-02-09T02:34:55.773Z,18.20
2023-02-09T02:37:55.705Z,18.20
2023-02-09T02:40:28.385Z,18.20
2023-02-09T02:43:22.345Z,18.20
2023-02-09T02:46:05.731Z,18.20
2023-02-09T02:48:55.206Z,18.20
2023-02-09T02:51:26.323Z,18.20
2023-02-09T02:53:57.210Z,18.20
2023-02-09T02:56:31.883Z,18.20
2023-02-09T02:59:01.169Z,18.10
2023-02-09T03:01:34.312Z,18.10
2023-02-09T03:04:04.855Z,18.10
2023-02-09T03:06:37.396Z,18.10
2023-02-09T03:09:04.638Z,18.10
2023-02-09T03:11:36.396Z,18.10
2023-02-09T03:14:14.670Z,18.10
2023-02-09T03:16:46.191Z,18.10
2023-02-09T03:19:36.919Z,18.10
2023-02-09T03:22:10.313Z,18.10
2023-02-09T03:24:47.880Z,18.10
2023-02-09T03:27:57.313Z,18.10
2023-02-09T03:30:25.085Z,18.10
2023-02-09T03:32:56.381Z,18.10
2023-02-09T03:35:27.237Z,18.10
2023-02-09T03:37:53.915Z,18.10
2023-02-09T03:40:20.819Z,18.00
2023-02-09T03:42:48.080Z,18.00
2023-02-09T03:45:14.851Z,18.00
2023-02-09T03:47:41.636Z,18.00
2023-02-09T03:50:10.062Z,18.00
2023-02-09T03:52:36.745Z,18.00
2023-02-09T03:55:04.486Z,18.00
2023-02-09T03:57:31.167Z,18.00
2023-02-09T03:59:57.846Z,18.00
2023-02-09T04:02:25.091Z,18.00
2023-02-09T04:04:53.494Z,18.00
2023-02-09T04:07:20.224Z,18.00
2023-02-09T04:09:46.889Z,18.00
2023-02-09T04:12:13.944Z,18.00
2023-02-09T04:14:40.581Z,18.00
2023-02-09T04:17:07.259Z,18.00
2023-02-09T04:19:33.964Z,18.00
2023-02-09T04:22:01.019Z,18.00
2023-02-09T04:24:28.868Z,18.00
2023-02-09T04:26:55.562Z,18.00
2023-02-09T04:29:22.448Z,18.00
2023-02-09T04:31:49.176Z,18.00
2023-02-09T04:34:15.930Z,18.00
2023-02-09T04:36:42.777Z,18.00
2023-02-09T04:39:09.505Z,18.00
2023-02-09T04:41:36.219Z,18.00
2023-02-09T04:44:02.982Z,18.00
2023-02-09T04:46:29.735Z,18.00
2023-02-09T04:48:56.450Z,18.00
2023-02-09T04:51:23.163Z,18.00
2023-02-09T04:53:49.883Z,18.00
2023-02-09T04:56:17.238Z,18.00
2023-02-09T04:59:03.850Z,18.00
2023-02-09T05:01:30.999Z,18.00
2023-02-09T05:03:57.850Z,17.90
2023-02-09T05:06:24.547Z,17.90
2023-02-09T05:08:51.308Z,17.90
2023-02-09T05:11:18.025Z,17.90
2023-02-09T05:13:45.013Z,17.90
2023-02-09T05:16:17.456Z,17.90
2023-02-09T05:18:44.478Z,17.90
2023-02-09T05:21:11.239Z,17.90
2023-02-09T05:23:37.909Z,17.90
2023-02-09T05:26:04.675Z,17.90
2023-02-09T05:28:31.368Z,17.90
2023-02-09T05:30:58.109Z,17.90
2023-02-09T05:33:25.909Z,17.80
2023-02-09T05:35:53.677Z,17.80
2023-02-09T05:38:20.449Z,17.80
2023-02-09T05:40:47.516Z,17.80
2023-02-09T05:43:14.432Z,17.80
2023-02-09T05:45:41.147Z,17.80
2023-02-09T05:48:07.875Z,17.80
2023-02-09T05:50:36.048Z,17.80
2023-02-09T05:53:02.740Z,17.80
2023-02-09T05:55:29.467Z,17.80
2023-02-09T05:57:56.270Z,17.80
2023-02-09T06:00:25.118Z,17.80
2023-02-09T06:02:51.971Z,17.80
2023-02-09T06:05:20.829Z,17.80
2023-02-09T06:07:48.173Z,17.80
2023-02-09T06:10:15.140Z,17.80
2023-02-09T06:12:41.837Z,17.80
2023-02-09T06:15:10.317Z,17.80
2023-02-09T06:17:37.329Z,17.80
2023-02-09T06:20:04.420Z,17.80
2023-02-09T06:22:31.842Z,17.80
2023-02-09T06:24:58.570Z,17.80
2023-02-09T06:27:25.415Z,17.80
2023-02-09T06:29:52.682Z,17.80
2023-02-09T06:32:19.541Z,17.80
2023-02-09T06:34:46.234Z,17.80
2023-02-09T06:37:12.885Z,17.80
2023-02-09T06:39:39.745Z,17.80
2023-02-09T06:42:06.438Z,17.80
2023-02-09T06:44:33.168Z,17.80
2023-02-09T06:46:59.857Z,17.80
2023-02-09T06:49:26.733Z,17.80
2023-02-09T06:51:53.600Z,17.80
2023-02-09T06:54:20.715Z,17.80
2023-02-09T06:56:47.868Z,17.80
2023-02-09T06:59:14.737Z,17.70
2023-02-09T07:01:41.754Z,17.80
2023-02-09T07:04:08.442Z,17.70
2023-02-09T07:06:35.149Z,17.70
2023-02-09T07:09:02.026Z,17.70
2023-02-09T07:11:28.939Z,17.70
2023-02-09T07:13:55.664Z,17.70
2023-02-09T07:16:22.467Z,17.70
2023-02-09T07:18:50.030Z,17.70
2023-02-09T07:21:18.639Z,17.70
2023-02-09T07:23:46.469Z,17.70
2023-02-09T07:26:16.089Z,17.70
2023-02-09T07:28:43.283Z,17.70
2023-02-09T07:31:13.197Z,17.70
2023-02-09T07:33:40.070Z,17.70
2023-02-09T07:36:09.521Z,17.70
2023-02-09T07:38:37.163Z,17.70
2023-02-09T07:41:05.813Z,17.80
2023-02-09T07:43:33.370Z,17.80
2023-02-09T07:46:04.614Z,17.80
2023-02-09T07:48:32.043Z,17.80
2023-02-09T07:50:59.308Z,17.80
2023-02-09T07:53:27.131Z,17.80
2023-02-09T07:55:54.152Z,17.70
2023-02-09T07:58:21.983Z,17.70
2023-02-09T08:00:49.880Z,17.70
2023-02-09T08:03:19.095Z,17.80
2023-02-09T08:05:50.906Z,17.80
2023-02-09T08:08:17.754Z,17.80
2023-02-09T08:10:44.636Z,17.80
2023-02-09T08:13:12.418Z,17.80
2023-02-09T08:15:44.693Z,17.80
2023-02-09T08:18:19.053Z,17.80
2023-02-09T08:20:47.230Z,17.80
2023-02-09T08:23:21.098Z,17.80
2023-02-09T08:25:51.359Z,17.80
2023-02-09T08:28:31.797Z,17.80
2023-02-09T08:31:05.287Z,17.80
2023-02-09T08:33:31.986Z,17.80
2023-02-09T08:35:58.757Z,17.80
2023-02-09T08:38:25.428Z,17.80
2023-02-09T08:40:52.108Z,17.80
2023-02-09T08:43:18.789Z,17.80
2023-02-09T08:45:45.924Z,17.80
2023-02-09T08:48:12.996Z,17.80
2023-02-09T08:50:40.127Z,17.80
2023-02-09T08:53:07.017Z,17.80
2023-02-09T08:55:37.230Z,17.80
2023-02-09T08:58:04.850Z,17.90
2023-02-09T09:00:32.218Z,17.90
2023-02-09T09:02:58.986Z,17.90
2023-02-09T09:05:25.745Z,17.90
2023-02-09T09:07:52.406Z,17.90
2023-02-09T09:10:19.149Z,17.90
2023-02-09T09:12:45.917Z,17.90
2023-02-09T09:15:12.832Z,17.90
2023-02-09T09:17:39.524Z,17.90
2023-02-09T09:20:07.019Z,17.90
2023-02-09T09:22:34.107Z,18.00
2023-02-09T09:25:00.804Z,18.00
2023-02-09T09:27:28.397Z,18.00
2023-02-09T09:29:55.668Z,18.00
2023-02-09T09:32:24.791Z,18.00
2023-02-09T09:34:55.902Z,18.00
2023-02-09T09:37:23.311Z,18.00
2023-02-09T09:39:50.105Z,18.10
2023-02-09T09:42:40.363Z,18.10
2023-02-09T09:45:14.246Z,18.10
2023-02-09T09:47:42.705Z,18.10
2023-02-09T09:50:22.451Z,18.10
2023-02-09T09:52:57.469Z,18.20
2023-02-09T09:55:27.157Z,18.20
2023-02-09T09:57:55.720Z,18.20
2023-02-09T10:00:28.869Z,18.20
2023-02-09T10:02:55.598Z,18.30
2023-02-09T10:05:37.738Z,18.30
2023-02-09T10:08:10.505Z,18.30
2023-02-09T10:10:49.598Z,18.30
2023-02-09T10:13:25.794Z,18.30
2023-02-09T10:15:55.712Z,18.30
2023-02-09T10:18:25.454Z,18.30
2023-02-09T10:20:56.584Z,18.30
2023-02-09T10:23:27.851Z,18.30
2023-02-09T10:25:57.224Z,18.30
2023-02-09T10:28:26.997Z,18.30
2023-02-09T10:30:58.694Z,18.30
2023-02-09T10:33:26.859Z,18.30
2023-02-09T10:35:56.654Z,18.30
2023-02-09T10:38:28.279Z,18.30
2023-02-09T10:40:54.942Z,18.30
2023-02-09T10:43:27.576Z,18.30
2023-02-09T10:46:00.518Z,18.30
2023-02-09T10:48:29.115Z,18.30
2023-02-09T10:51:05.130Z,18.30
2023-02-09T10:53:33.134Z,18.30
2023-02-09T10:56:17.039Z,18.30
2023-02-09T10:58:51.776Z,18.30
2023-02-09T11:01:23.452Z,18.30
2023-02-09T11:04:03.759Z,18.40
2023-02-09T11:06:42.969Z,18.40
2023-02-09T11:09:17.025Z,18.40
2023-02-09T11:11:44.769Z,18.40
2023-02-09T11:14:19.390Z,18.40
2023-02-09T11:17:01.502Z,18.50
2023-02-09T11:20:04.661Z,18.50
2023-02-09T11:22:34.491Z,18.50
2023-02-09T11:25:26.008Z,18.60
2023-02-09T11:28:20.403Z,18.60
2023-02-09T11:31:07.084Z,18.70
2023-02-09T11:34:07.156Z,18.80
2023-02-09T11:36:44.555Z,18.90
2023-02-09T11:39:17.337Z,18.90
2023-02-09T11:42:08.953Z,19.00
2023-02-09T11:44:46.543Z,19.10
2023-02-09T11:47:38.394Z,19.10
2023-02-09T11:50:08.003Z,19.10
2023-02-09T11:52:42.534Z,19.10
2023-02-09T11:55:24.589Z,19.00
2023-02-09T11:58:02.950Z,19.00
2023-02-09T12:00:52.618Z,19.00
2023-02-09T12:03:21.367Z,19.00
2023-02-09T12:05:48.957Z,19.00
2023-02-09T12:08:39.844Z,19.00
2023-02-09T12:11:09.517Z,19.10
2023-02-09T12:14:02.818Z,19.20
2023-02-09T12:16:37.428Z,19.20
2023-02-09T12:19:06.506Z,19.20
2023-02-09T12:21:38.372Z,19.20
2023-02-09T12:24:41.402Z,19.20
2023-02-09T12:27:26.052Z,19.20
2023-02-09T12:29:52.731Z,19.20
2023-02-09T12:32:41.197Z,19.20
2023-02-09T12:35:28.576Z,19.30
2023-02-09T12:38:19.568Z,19.30
2023-02-09T12:41:03.565Z,19.40
2023-02-09T12:43:32.937Z,19.50
2023-02-09T12:46:21.350Z,19.50
2023-02-09T12:48:52.607Z,19.50
2023-02-09T12:51:46.610Z,19.60
2023-02-09T12:54:50.749Z,19.70
2023-02-09T12:57:18.708Z,19.60
2023-02-09T12:59:59.148Z,19.70
2023-02-09T13:02:36.274Z,19.70
2023-02-09T13:05:11.849Z,19.70
2023-02-09T13:08:13.182Z,19.70
2023-02-09T13:10:44.849Z,19.70
2023-02-09T13:13:11.496Z,19.70
2023-02-09T13:16:03.343Z,19.70
2023-02-09T13:19:00.914Z,19.70
2023-02-09T13:21:48.778Z,19.70
2023-02-09T13:24:23.293Z,19.70
2023-02-09T13:26:55.428Z,19.70
2023-02-09T13:29:25.544Z,19.80
2023-02-09T13:32:13.269Z,19.70
2023-02-09T13:35:01.394Z,19.80
2023-02-09T13:37:34.120Z,19.80
2023-02-09T13:40:04.052Z,19.90
2023-02-09T13:42:36.034Z,19.90
2023-02-09T13:45:02.774Z,19.90
2023-02-09T13:47:29.697Z,19.90
2023-02-09T13:50:04.665Z,19.90
2023-02-09T13:52:38.895Z,19.80
2023-02-09T13:55:26.556Z,19.80
2023-02-09T13:58:02.485Z,19.80
2023-02-09T14:00:41.564Z,19.80
2023-02-09T14:03:23.167Z,19.80
2023-02-09T14:05:52.983Z,19.70
2023-02-09T14:08:20.866Z,19.70
2023-02-09T14:11:01.391Z,19.70
2023-02-09T14:13:34.000Z,19.70
2023-02-09T14:16:08.683Z,19.70
2023-02-09T14:18:45.972Z,19.70
2023-02-09T14:21:15.601Z,19.70
2023-02-09T14:23:47.967Z,19.70
2023-02-09T14:26:14.654Z,19.70
2023-02-09T14:28:43.991Z,19.70
2023-02-09T14:31:23.534Z,19.70
2023-02-09T14:33:53.375Z,19.70
2023-02-09T14:36:35.033Z,19.70
2023-02-09T14:39:12.912Z,19.70
2023-02-09T14:41:40.051Z,19.70
2023-02-09T14:44:06.647Z,19.70
2023-02-09T14:46:53.520Z,19.70
2023-02-09T14:49:21.325Z,19.70
2023-02-09T14:51:50.821Z,19.70
2023-02-09T14:54:25.309Z,19.70
2023-02-09T14:56:54.181Z,19.70
2023-02-09T14:59:21.759Z,19.70
2023-02-09T15:01:50.770Z,19.70
2023-02-09T15:04:18.134Z,19.70
2023-02-09T15:06:48.523Z,19.70
2023-02-09T15:09:36.441Z,19.70
2023-02-09T15:12:05.179Z,19.70
2023-02-09T15:14:40.699Z,19.70
2023-02-09T15:17:14.071Z,19.70
2023-02-09T15:19:41.269Z,19.70
2023-02-09T15:22:08.780Z,19.70
2023-02-09T15:24:36.194Z,19.70
2023-02-09T15:27:03.337Z,19.70
2023-02-09T15:29:30.726Z,19.70
2023-02-09T15:31:57.484Z,19.60
2023-02-09T15:34:24.326Z,19.70
2023-02-09T15:36:51.130Z,19.60
2023-02-09T15:39:21.630Z,19.60
2023-02-09T15:42:07.046Z,19.60
2023-02-09T15:44:52.505Z,19.60
2023-02-09T15:47:37.871Z,19.60
2023-02-09T15:50:04.716Z,19.60
2023-02-09T15:52:32.133Z,19.60
2023-02-09T15:54:59.207Z,19.50
2023-02-09T15:57:26.517Z,19.60
2023-02-09T15:59:53.280Z,19.60
2023-02-09T16:02:20.212Z,19.60
2023-02-09T16:04:47.895Z,19.60
2023-02-09T16:07:22.290Z,19.60
2023-02-09T16:09:48.976Z,19.60
2023-02-09T16:12:15.654Z,19.50
2023-02-09T16:14:42.367Z,19.50
2023-02-09T16:17:09.114Z,19.50
2023-02-09T16:19:35.901Z,19.50
2023-02-09T16:22:06.709Z,19.50
2023-02-09T16:24:45.239Z,19.50
2023-02-09T16:27:18.583Z,19.50
2023-02-09T16:29:45.282Z,19.50
2023-02-09T16:32:16.613Z,19.50
2023-02-09T16:34:44.198Z,19.50
2023-02-09T16:37:19.794Z,19.50
2023-02-09T16:39:46.585Z,19.50
2023-02-09T16:42:14.626Z,19.50
2023-02-09T16:44:41.758Z,19.50
2023-02-09T16:47:20.213Z,19.50
2023-02-09T16:50:15.590Z,19.50
2023-02-09T16:52:43.878Z,19.50
2023-02-09T16:55:22.307Z,19.50
2023-02-09T16:57:49.098Z,19.50
2023-02-09T17:00:16.260Z,19.50
2023-02-09T17:02:51.261Z,19.50
2023-02-09T17:05:19.616Z,19.50
2023-02-09T17:07:54.511Z,19.50
2023-02-09T17:10:25.862Z,19.50
2023-02-09T17:12:53.729Z,19.50
2023-02-09T17:15:30.163Z,19.50
2023-02-09T17:18:02.491Z,19.50
2023-02-09T17:20:42.373Z,19.50
2023-02-09T17:23:23.156Z,19.50
2023-02-09T17:25:51.584Z,19.50
2023-02-09T17:28:19.206Z,19.50
2023-02-09T17:30:47.762Z,19.50
2023-02-09T17:33:26.844Z,19.50
2023-02-09T17:36:25.669Z,19.50
2023-02-09T17:38:42.476Z,19.50
2023-02-09T17:41:21.731Z,19.50
2023-02-09T17:43:50.397Z,19.50
2023-02-09T17:46:18.990Z,19.50
2023-02-09T17:48:46.845Z,19.50
2023-02-09T17:51:23.676Z,19.50
2023-02-09T17:53:50.498Z,19.50
2023-02-09T17:56:17.263Z,19.50
2023-02-09T17:58:44.553Z,19.50
2023-02-09T18:01:29.307Z,19.50
2023-02-09T18:03:58.534Z,19.50
2023-02-09T18:06:35.544Z,19.50
2023-02-09T18:09:05.239Z,19.50
2023-02-09T18:11:50.449Z,19.50
2023-02-09T18:14:17.925Z,19.50
2023-02-09T18:16:47.016Z,19.50
2023-02-09T18:19:15.756Z,19.50
2023-02-09T18:21:51.481Z,19.50
2023-02-09T18:24:20.207Z,19.50
2023-02-09T18:26:47.887Z,19.50
2023-02-09T18:29:14.704Z,19.40
2023-02-09T18:31:41.570Z,19.40
2023-02-09T18:34:08.367Z,19.40
2023-02-09T18:36:36.000Z,19.40
2023-02-09T18:39:02.964Z,19.40
2023-02-09T18:41:29.746Z,19.40
2023-02-09T18:43:56.419Z,19.40
2023-02-09T18:46:27.146Z,19.40
2023-02-09T18:48:54.704Z,19.40
2023-02-09T18:51:21.717Z,19.40
2023-02-09T18:53:51.160Z,19.40
2023-02-09T18:56:20.516Z,19.40
2023-02-09T18:58:50.810Z,19.30
2023-02-09T19:01:20.193Z,19.30
2023-02-09T19:03:53.100Z,19.30
2023-02-09T19:06:21.837Z,19.30
2023-02-09T19:08:50.212Z,19.30
2023-02-09T19:11:18.607Z,19.30
2023-02-09T19:14:08.232Z,19.30
2023-02-09T19:16:36.505Z,19.30
2023-02-09T19:19:09.479Z,19.30
2023-02-09T19:21:38.481Z,19.20
2023-02-09T19:24:05.529Z,19.20
2023-02-09T19:26:33.513Z,19.20
2023-02-09T19:29:00.350Z,19.20
2023-02-09T19:31:27.360Z,19.20
2023-02-09T19:33:57.822Z,19.20
2023-02-09T19:36:27.905Z,19.20
2023-02-09T19:38:56.263Z,19.20
2023-02-09T19:41:25.414Z,19.20
2023-02-09T19:43:57.309Z,19.20
2023-02-09T19:46:25.075Z,19.20
2023-02-09T19:48:53.912Z,19.20
2023-02-09T19:51:21.276Z,19.20
2023-02-09T19:53:48.453Z,19.20
2023-02-09T19:56:17.377Z,19.20
2023-02-09T19:58:45.057Z,19.20
2023-02-09T20:01:12.079Z,19.20
2023-02-09T20:03:39.610Z,19.20
2023-02-09T20:06:09.362Z,19.20
2023-02-09T20:08:37.541Z,19.20
2023-02-09T20:11:09.438Z,19.20
2023-02-09T20:13:37.191Z,19.20
2023-02-09T20:16:12.335Z,19.10
2023-02-09T20:18:40.116Z,19.20
2023-02-09T20:21:08.485Z,19.20
2023-02-09T20:23:36.627Z,19.20
2023-02-09T20:26:16.380Z,19.10
2023-02-09T20:28:43.322Z,19.10
2023-02-09T20:31:15.067Z,19.10
2023-02-09T20:33:43.312Z,19.10
2023-02-09T20:36:10.375Z,19.10
2023-02-09T20:38:37.808Z,19.10
2023-02-09T20:41:09.721Z,19.10
2023-02-09T20:43:56.792Z,19.10
2023-02-09T20:46:41.231Z,19.10
2023-02-09T20:49:09.733Z,19.10
2023-02-09T20:51:37.342Z,19.10
2023-02-09T20:54:05.061Z,19.10
2023-02-09T20:56:32.192Z,19.00
2023-02-09T20:58:58.993Z,19.00
2023-02-09T21:01:26.807Z,19.00
2023-02-09T21:03:54.915Z,19.00
2023-02-09T21:06:22.793Z,19.00
2023-02-09T21:08:49.581Z,19.00
2023-02-09T21:11:17.242Z,19.00
2023-02-09T21:13:44.958Z,19.00
2023-02-09T21:16:15.463Z,19.00
2023-02-09T21:18:43.144Z,19.00
2023-02-09T21:21:14.294Z,19.00
2023-02-09T21:23:42.313Z,19.00
2023-02-09T21:26:11.883Z,19.00
2023-02-09T21:28:38.860Z,19.00
2023-02-09T21:31:10.777Z,19.00
2023-02-09T21:33:37.467Z,19.00
2023-02-09T21:36:05.882Z,19.00
2023-02-09T21:38:32.678Z,19.00
2023-02-09T21:40:59.359Z,19.00
2023-02-09T21:43:26.017Z,19.00
2023-02-09T21:45:52.813Z,19.00
2023-02-09T21:48:19.530Z,19.00
2023-02-09T21:50:46.206Z,19.00
2023-02-09T21:53:12.930Z,19.00
2023-02-09T21:55:39.614Z,19.00
2023-02-09T21:58:06.421Z,19.00
2023-02-09T22:00:33.406Z,19.00
2023-02-09T22:03:00.509Z,19.00
2023-02-09T22:05:27.230Z,19.00
2023-02-09T22:07:54.126Z,19.10
2023-02-09T22:10:20.787Z,19.10
2023-02-09T22:12:47.456Z,19.10
2023-02-09T22:15:15.105Z,19.10
2023-02-09T22:17:41.815Z,19.10
2023-02-09T22:20:09.502Z,19.10
2023-02-09T22:22:36.371Z,19.10
2023-02-09T22:25:03.168Z,19.10
2023-02-09T22:27:29.882Z,19.10
2023-02-09T22:29:56.547Z,19.00
2023-02-09T22:32:23.858Z,19.10
2023-02-09T22:34:50.553Z,19.10
2023-02-09T22:37:17.257Z,19.10
2023-02-09T22:39:44.968Z,19.10
2023-02-09T22:42:11.691Z,19.10
2023-02-09T22:44:38.392Z,19.00
2023-02-09T22:47:05.130Z,19.10
2023-02-09T22:49:31.937Z,19.00
2023-02-09T22:51:58.619Z,19.00
2023-02-09T22:54:25.473Z,19.00
2023-02-09T22:56:52.804Z,19.10
2023-02-09T22:59:19.479Z,19.00
2023-02-09T23:01:46.294Z,19.00
2023-02-09T23:04:13.299Z,19.00
2023-02-09T23:06:40.003Z,19.00
2023-02-09T23:09:07.865Z,19.00
2023-02-09T23:11:35.030Z,19.00
2023-02-09T23:14:10.810Z,19.00
2023-02-09T23:16:39.441Z,19.00
2023-02-09T23:19:08.028Z,19.00
2023-02-09T23:21:40.014Z,19.00
2023-02-09T23:24:07.435Z,19.00
2023-02-09T23:26:34.873Z,19.00
2023-02-09T23:29:05.024Z,19.00
2023-02-09T23:31:32.240Z,19.00
2023-02-09T23:33:59.339Z,19.00
2023-02-09T23:36:28.539Z,19.00
2023-02-09T23:38:57.618Z,19.00
2023-02-09T23:41:25.203Z,19.00
2023-02-09T23:43:52.692Z,19.00
2023-02-09T23:46:22.366Z,19.00
2023-02-09T23:48:50.046Z,18.90
2023-02-09T23:51:22.039Z,19.00
2023-02-09T23:53:48.801Z,19.00
2023-02-09T23:56:17.392Z,19.00
2023-02-09T23:58:46.252Z,19.00
